Time;durP1;ratioP1;P1;durP2;ratioP2;P2;SDS_P1;SDS_P2;PMS_P1;PMS_P2;Temp;Humidity;BMP_temperature;BMP_pressure;BME280_temperature;BME280_humidity;BME280_pressure;Samples;Min_cycle;Max_cycle;Signal;HPM_P1;HPM_P2
2021/06/04 00:00:29;;;;;;;7.90;7.03;;;17.00;99.90;;;;;;5012428;28;20034;-75
2021/06/04 00:02:56;;;;;;;8.32;7.38;;;16.80;99.90;;;;;;5012979;28;20068;-75
2021/06/04 00:05:27;;;;;;;8.25;7.50;;;16.80;99.90;;;;;;5012857;28;20026;-74
2021/06/04 00:07:53;;;;;;;8.95;8.10;;;16.70;99.90;;;;;;5012765;28;20361;-74
2021/06/04 00:10:29;;;;;;;10.25;9.05;;;16.70;99.90;;;;;;5012416;28;20030;-75
2021/06/04 00:13:10;;;;;;;9.63;8.70;;;16.70;99.90;;;;;;4995861;28;20030;-75
2021/06/04 00:15:36;;;;;;;9.75;8.65;;;16.70;99.90;;;;;;5012734;28;20431;-76
2021/06/04 00:18:01;;;;;;;9.25;8.35;;;16.70;99.90;;;;;;5012822;28;20092;-75
2021/06/04 00:20:27;;;;;;;9.85;8.85;;;16.60;99.90;;;;;;5011944;28;20026;-76
2021/06/04 00:22:53;;;;;;;11.55;9.93;;;16.60;99.90;;;;;;5012586;28;20030;-75
2021/06/04 00:25:20;;;;;;;10.27;9.27;;;16.60;99.90;;;;;;4995054;28;20513;-74
2021/06/04 00:27:46;;;;;;;8.93;8.02;;;16.50;99.90;;;;;;5012523;28;20109;-74
2021/06/04 00:30:14;;;;;;;9.60;8.70;;;16.50;99.90;;;;;;4993337;28;20060;-72
2021/06/04 00:32:40;;;;;;;7.88;7.18;;;16.40;99.90;;;;;;5012370;28;20101;-73
2021/06/04 00:35:09;;;;;;;8.38;7.68;;;16.40;99.90;;;;;;5012209;28;20101;-74
2021/06/04 00:37:35;;;;;;;10.20;9.20;;;16.30;99.90;;;;;;5012279;28;20112;-72
2021/06/04 00:40:00;;;;;;;9.32;8.43;;;16.40;99.90;;;;;;5011409;28;20443;-73
2021/06/04 00:42:33;;;;;;;9.48;8.57;;;16.40;99.90;;;;;;5018632;23;20046;-74
2021/06/04 00:45:00;;;;;;;9.30;8.10;;;16.30;99.90;;;;;;5011758;28;20443;-74
2021/06/04 00:47:26;;;;;;;10.45;9.45;;;16.20;99.90;;;;;;5012098;28;20022;-72
2021/06/04 00:49:52;;;;;;;10.48;8.90;;;16.20;99.90;;;;;;5011553;28;20104;-73
2021/06/04 00:52:29;;;;;;;8.77;7.97;;;16.10;99.90;;;;;;5011240;28;20121;-72
2021/06/04 00:54:57;;;;;;;9.90;8.98;;;16.10;99.90;;;;;;5012104;28;20435;-73
2021/06/04 00:57:24;;;;;;;8.93;8.00;;;16.10;99.90;;;;;;5011819;28;20455;-74
2021/06/04 00:59:50;;;;;;;10.30;8.73;;;16.10;99.90;;;;;;5011001;28;20033;-73
2021/06/04 01:02:19;;;;;;;10.93;9.13;;;16.10;99.90;;;;;;5011832;28;20022;-73
2021/06/04 01:04:46;;;;;;;10.80;9.07;;;16.10;99.90;;;;;;5011738;28;20049;-73
2021/06/04 01:07:29;;;;;;;10.70;9.60;;;16.10;99.90;;;;;;5011675;28;20042;-73
2021/06/04 01:10:00;;;;;;;11.98;10.57;;;16.20;99.90;;;;;;5011224;28;20392;-73
2021/06/04 01:12:51;;;;;;;10.37;9.37;;;16.10;99.90;;;;;;5011366;28;20029;-73
2021/06/04 01:15:34;;;;;;;11.70;10.02;;;16.10;99.90;;;;;;4993883;28;20025;-73
2021/06/04 01:18:38;;;;;;;11.13;10.02;;;16.00;99.90;;;;;;5011669;28;20034;-73
2021/06/04 01:21:07;;;;;;;13.10;10.15;;;16.00;99.90;;;;;;5010933;28;20070;-73
2021/06/04 01:23:56;;;;;;;10.30;9.30;;;16.00;99.90;;;;;;4993917;28;20121;-73
2021/06/04 01:26:27;;;;;;;10.63;9.65;;;15.90;99.90;;;;;;5011540;28;20435;-74
2021/06/04 01:28:59;;;;;;;11.05;9.63;;;15.90;99.90;;;;;;5011287;28;20018;-74
2021/06/04 01:31:33;;;;;;;10.60;9.45;;;15.80;99.90;;;;;;4992996;28;20030;-73
2021/06/04 01:34:10;;;;;;;11.32;10.10;;;15.80;99.90;;;;;;5011572;28;20490;-73
2021/06/04 01:36:42;;;;;;;12.10;9.48;;;15.80;99.90;;;;;;5011532;28;20030;-73
2021/06/04 01:39:18;;;;;;;10.45;9.38;;;15.80;99.90;;;;;;5011117;28;20472;-73
2021/06/04 01:41:48;;;;;;;9.57;8.65;;;15.70;99.90;;;;;;5010591;28;20117;-72
2021/06/04 01:44:39;;;;;;;11.40;8.20;;;15.70;99.90;;;;;;5011125;28;20040;-74
2021/06/04 01:47:09;;;;;;;8.50;7.70;;;15.70;99.90;;;;;;5011598;28;20025;-72
2021/06/04 01:49:39;;;;;;;9.10;8.30;;;15.70;99.90;;;;;;5010534;28;20084;-72
2021/06/04 01:52:20;;;;;;;9.27;8.40;;;15.60;99.90;;;;;;5011313;28;20041;-74
2021/06/04 01:54:49;;;;;;;8.48;7.60;;;15.60;99.90;;;;;;5011543;28;20433;-74
2021/06/04 01:57:25;;;;;;;8.80;7.85;;;15.60;99.90;;;;;;4993599;28;20068;-72
2021/06/04 01:59:52;;;;;;;8.30;7.60;;;15.60;99.90;;;;;;5010446;28;20054;-71
2021/06/04 02:02:26;;;;;;;9.25;8.45;;;15.60;99.90;;;;;;5011237;28;20113;-73
2021/06/04 02:04:54;;;;;;;9.05;8.20;;;15.60;99.90;;;;;;5011177;28;20060;-74
2021/06/04 02:07:28;;;;;;;9.57;8.68;;;15.60;99.90;;;;;;5011709;28;20106;-73
2021/06/04 02:09:54;;;;;;;8.57;7.78;;;15.70;99.90;;;;;;4993433;28;20030;-73
2021/06/04 02:12:21;;;;;;;9.40;8.55;;;15.60;99.90;;;;;;5011204;28;20061;-72
2021/06/04 02:14:50;;;;;;;9.13;8.23;;;15.50;99.90;;;;;;4993331;28;20572;-73
2021/06/04 02:17:30;;;;;;;10.63;9.60;;;15.50;99.90;;;;;;5011432;28;20392;-73
2021/06/04 02:20:11;;;;;;;11.95;9.75;;;15.60;99.90;;;;;;4993059;28;20477;-74
2021/06/04 02:22:53;;;;;;;10.45;9.40;;;15.50;99.90;;;;;;5013664;28;20053;-73
2021/06/04 02:25:42;;;;;;;10.48;9.48;;;15.50;99.90;;;;;;5012792;28;20033;-73
2021/06/04 02:28:48;;;;;;;10.73;9.48;;;15.50;99.90;;;;;;5011248;28;20030;-73
2021/06/04 02:31:24;;;;;;;10.30;9.30;;;15.50;99.90;;;;;;4994266;28;20022;-73
2021/06/04 02:34:00;;;;;;;10.50;8.98;;;15.40;99.90;;;;;;5014290;28;20030;-73
2021/06/04 02:36:30;;;;;;;9.93;8.65;;;15.40;99.90;;;;;;5013983;28;20022;-73
2021/06/04 02:39:18;;;;;;;9.20;8.25;;;15.40;99.90;;;;;;5011291;28;20032;-73
2021/06/04 02:42:00;;;;;;;10.85;7.95;;;15.40;99.90;;;;;;4992490;28;20072;-73
2021/06/04 02:44:35;;;;;;;10.00;8.98;;;15.40;99.90;;;;;;5010507;28;20045;-74
2021/06/04 02:47:13;;;;;;;9.13;8.23;;;15.40;99.90;;;;;;5011039;28;20038;-73
2021/06/04 02:49:40;;;;;;;9.43;7.93;;;15.30;99.90;;;;;;4992730;28;20037;-73
2021/06/04 02:52:09;;;;;;;11.13;9.80;;;15.30;99.90;;;;;;5011433;28;20105;-73
2021/06/04 02:54:38;;;;;;;11.15;10.13;;;15.40;99.90;;;;;;5014653;28;20052;-73
2021/06/04 02:57:12;;;;;;;12.55;10.55;;;15.50;99.90;;;;;;5016598;28;20228;-74
2021/06/04 02:59:41;;;;;;;12.32;10.85;;;15.50;99.90;;;;;;4998586;28;20116;-73
2021/06/04 03:02:08;;;;;;;12.20;10.98;;;15.50;99.90;;;;;;5016634;28;20030;-73
2021/06/04 03:04:37;;;;;;;12.98;11.05;;;15.50;99.90;;;;;;5016536;28;20026;-73
2021/06/04 03:07:13;;;;;;;12.35;11.10;;;15.50;99.90;;;;;;5003483;28;20373;-73
2021/06/04 03:09:42;;;;;;;13.30;12.00;;;15.50;99.90;;;;;;4994768;28;20869;-73
2021/06/04 03:12:25;;;;;;;15.80;12.00;;;15.50;99.90;;;;;;4994389;28;20057;-73
2021/06/04 03:14:51;;;;;;;;;;;15.50;99.90;;;;;;4993877;28;20061;-73
2021/06/04 03:17:19;;;;;;;12.32;10.38;;;15.50;99.90;;;;;;4994049;28;19906;-73
2021/06/04 03:19:44;;;;;;;13.90;12.50;;;15.40;99.90;;;;;;4993516;28;20121;-73
2021/06/04 03:22:25;;;;;;;13.20;11.90;;;15.50;99.90;;;;;;4994172;28;20564;-73
2021/06/04 03:24:50;;;;;;;13.38;11.68;;;15.50;99.90;;;;;;4993463;28;20033;-73
2021/06/04 03:27:19;;;;;;;13.38;11.85;;;15.40;99.90;;;;;;4994241;28;20101;-73
2021/06/04 03:29:46;;;;;;;13.20;11.80;;;15.50;99.90;;;;;;4992893;28;20037;-73
2021/06/04 03:32:14;;;;;;;16.05;11.57;;;15.50;99.90;;;;;;4993834;28;20092;-73
2021/06/04 03:34:44;;;;;;;13.13;11.82;;;15.50;99.90;;;;;;4994145;28;20030;-73
2021/06/04 03:37:10;;;;;;;15.93;12.57;;;15.40;99.90;;;;;;4994157;28;20080;-73
2021/06/04 03:39:40;;;;;;;17.05;13.38;;;15.40;99.90;;;;;;4993591;28;20034;-73
2021/06/04 03:42:11;;;;;;;15.25;12.85;;;15.30;99.90;;;;;;4993423;28;20177;-73
2021/06/04 03:44:41;;;;;;;12.38;11.27;;;15.30;99.90;;;;;;4993646;28;20026;-73
2021/06/04 03:47:08;;;;;;;13.10;11.90;;;15.30;99.90;;;;;;4993936;28;20093;-73
2021/06/04 03:49:34;;;;;;;13.57;11.95;;;15.30;99.90;;;;;;4993511;28;20030;-72
2021/06/04 03:52:01;;;;;;;12.57;11.27;;;15.20;99.90;;;;;;4993370;28;20134;-72
2021/06/04 03:54:35;;;;;;;13.82;12.38;;;15.20;99.90;;;;;;4993662;28;20097;-73
2021/06/04 03:57:05;;;;;;;13.23;11.43;;;15.20;99.90;;;;;;4993667;28;20109;-73
2021/06/04 03:59:31;;;;;;;11.90;10.80;;;15.20;99.90;;;;;;4992863;28;20437;-72
2021/06/04 04:02:02;;;;;;;12.25;10.98;;;15.20;99.90;;;;;;4993404;28;20037;-72
2021/06/04 04:04:28;;;;;;;12.25;10.80;;;15.20;99.90;;;;;;4993313;28;20496;-72
2021/06/04 04:06:54;;;;;;;11.82;10.63;;;15.20;99.90;;;;;;4993667;28;20038;-71
2021/06/04 04:09:24;;;;;;;12.13;10.93;;;15.10;99.90;;;;;;4992140;28;20589;-71
2021/06/04 04:11:52;;;;;;;11.75;10.55;;;15.10;99.90;;;;;;5009095;28;20085;-73
2021/06/04 04:14:17;;;;;;;10.70;9.68;;;15.10;99.90;;;;;;5013861;28;20030;-72
2021/06/04 04:16:43;;;;;;;12.70;9.35;;;15.20;99.90;;;;;;4999069;28;20097;-71
2021/06/04 04:19:09;;;;;;;10.45;9.50;;;15.10;99.90;;;;;;4993119;28;20038;-72
2021/06/04 04:21:36;;;;;;;8.63;7.82;;;15.10;99.90;;;;;;4992509;28;20026;-72
2021/06/04 04:24:10;;;;;;;10.60;8.40;;;15.20;99.90;;;;;;4975623;28;20022;-72
2021/06/04 04:26:38;;;;;;;13.55;9.13;;;15.20;99.90;;;;;;4993112;28;20375;-72
2021/06/04 04:29:05;;;;;;;11.50;10.40;;;15.30;99.90;;;;;;4992611;28;20030;-72
2021/06/04 04:31:33;;;;;;;10.02;9.13;;;15.50;99.90;;;;;;4992067;28;20512;-74
2021/06/04 04:33:59;;;;;;;15.88;10.60;;;15.40;99.90;;;;;;4992763;28;20026;-74
2021/06/04 04:36:32;;;;;;;11.35;10.27;;;15.50;99.90;;;;;;4992765;28;20026;-73
2021/06/04 04:38:58;;;;;;;12.00;10.88;;;15.50;99.90;;;;;;4992699;28;20073;-73
2021/06/04 04:41:24;;;;;;;10.60;9.60;;;15.70;99.90;;;;;;4992002;28;20026;-73
2021/06/04 04:43:52;;;;;;;10.35;9.40;;;15.50;99.90;;;;;;4992636;28;20559;-73
2021/06/04 04:46:21;;;;;;;11.15;10.10;;;15.60;99.90;;;;;;4974651;28;20022;-73
2021/06/04 04:48:47;;;;;;;11.45;9.98;;;15.60;99.90;;;;;;4992284;28;20019;-73
2021/06/04 04:51:14;;;;;;;11.52;9.70;;;15.70;99.90;;;;;;4991083;28;20109;-73
2021/06/04 04:53:41;;;;;;;12.27;11.18;;;15.80;99.90;;;;;;4992372;28;20035;-71
2021/06/04 04:56:08;;;;;;;9.63;8.73;;;15.90;99.90;;;;;;4992436;28;20117;-73
2021/06/04 04:58:35;;;;;;;9.75;8.20;;;15.80;99.90;;;;;;4993732;28;20084;-74
2021/06/04 05:01:03;;;;;;;8.15;7.45;;;15.70;99.90;;;;;;4993728;28;20030;-72
2021/06/04 05:03:29;;;;;;;8.82;7.10;;;15.70;99.90;;;;;;4994698;28;20543;-74
2021/06/04 05:05:55;;;;;;;8.10;7.40;;;15.70;99.90;;;;;;4991145;28;20026;-73
2021/06/04 05:08:21;;;;;;;8.48;7.63;;;15.80;99.90;;;;;;5004468;28;20019;-72
2021/06/04 05:10:47;;;;;;;10.25;7.38;;;15.60;99.90;;;;;;4993664;28;20030;-72
2021/06/04 05:13:14;;;;;;;8.13;7.25;;;15.60;99.90;;;;;;4992002;28;20062;-72
2021/06/04 05:15:41;;;;;;;8.65;7.43;;;15.60;99.90;;;;;;4990219;28;20018;-73
2021/06/04 05:18:09;;;;;;;7.70;7.00;;;15.60;99.90;;;;;;4991144;28;20413;-72
2021/06/04 05:20:35;;;;;;;7.93;7.10;;;15.60;99.90;;;;;;4990823;28;20392;-73
2021/06/04 05:23:01;;;;;;;8.10;7.22;;;15.80;99.90;;;;;;4992330;28;20042;-73
2021/06/04 05:25:34;;;;;;;7.90;7.00;;;16.00;99.90;;;;;;5011444;28;20026;-72
2021/06/04 05:28:01;;;;;;;7.22;6.57;;;16.10;99.90;;;;;;5010803;28;20024;-72
2021/06/04 05:30:33;;;;;;;7.72;7.03;;;16.20;99.90;;;;;;5006275;28;20127;-72
2021/06/04 05:32:59;;;;;;;10.20;7.65;;;16.20;99.90;;;;;;4991717;28;20412;-72
2021/06/04 05:35:27;;;;;;;7.95;7.15;;;16.30;99.90;;;;;;4991447;28;20023;-72
2021/06/04 05:37:53;;;;;;;7.68;6.90;;;16.50;99.90;;;;;;4973492;28;20085;-72
2021/06/04 05:40:23;;;;;;;8.65;7.85;;;16.60;99.90;;;;;;4991060;28;20592;-73
2021/06/04 05:42:49;;;;;;;11.43;8.10;;;16.70;99.90;;;;;;4991345;28;20058;-72
2021/06/04 05:45:17;;;;;;;9.32;8.40;;;16.80;99.90;;;;;;4991110;28;20041;-74
2021/06/04 05:47:44;;;;;;;8.85;8.13;;;17.00;99.90;;;;;;4974216;28;20018;-73
2021/06/04 05:50:16;;;;;;;8.57;7.68;;;17.10;99.90;;;;;;4991031;28;20080;-71
2021/06/04 05:52:43;;;;;;;8.20;7.50;;;17.20;99.90;;;;;;4992167;28;20037;-73
2021/06/04 05:55:13;;;;;;;9.00;8.07;;;17.30;99.90;;;;;;4991897;28;20026;-71
2021/06/04 05:57:39;;;;;;;7.35;6.63;;;17.40;99.90;;;;;;4993973;28;20033;-73
2021/06/04 06:00:12;;;;;;;7.25;6.32;;;17.50;99.90;;;;;;5007560;28;20026;-72
2021/06/04 06:02:37;;;;;;;7.13;6.43;;;17.60;99.90;;;;;;5021662;28;20038;-71
2021/06/04 06:05:04;;;;;;;6.57;5.95;;;17.70;99.90;;;;;;5010855;28;20031;-73
2021/06/04 06:07:29;;;;;;;9.82;6.70;;;17.80;99.90;;;;;;5019721;28;20028;-72
2021/06/04 06:09:55;;;;;;;8.23;6.35;;;17.90;99.90;;;;;;5024211;28;20050;-73
2021/06/04 06:12:21;;;;;;;7.43;5.10;;;18.10;99.90;;;;;;4993315;28;20587;-73
2021/06/04 06:14:46;;;;;;;7.18;5.55;;;18.10;99.90;;;;;;5011011;28;20057;-73
2021/06/04 06:17:12;;;;;;;8.27;5.55;;;18.40;99.90;;;;;;5010910;28;20030;-73
2021/06/04 06:19:38;;;;;;;7.72;5.07;;;18.60;99.90;;;;;;5010248;28;20029;-73
2021/06/04 06:22:04;;;;;;;5.43;4.93;;;18.70;99.90;;;;;;5011235;28;20197;-73
2021/06/04 06:24:30;;;;;;;7.55;5.55;;;18.80;99.90;;;;;;5011080;28;20103;-72
2021/06/04 06:26:57;;;;;;;7.10;5.25;;;19.00;99.90;;;;;;5001139;28;20096;-72
2021/06/04 06:29:23;;;;;;;6.00;5.40;;;19.10;99.90;;;;;;4994052;28;20026;-73
2021/06/04 06:31:49;;;;;;;5.28;4.78;;;19.10;99.90;;;;;;4977282;28;20125;-72
2021/06/04 06:34:16;;;;;;;9.20;4.78;;;19.40;99.90;;;;;;4994907;28;20118;-72
2021/06/04 06:36:44;;;;;;;5.38;4.63;;;19.70;99.90;;;;;;4994756;28;20041;-73
2021/06/04 06:39:17;;;;;;;7.32;4.40;;;19.80;99.90;;;;;;4996560;28;20030;-72
2021/06/04 06:41:46;;;;;;;6.60;4.68;;;20.20;99.90;;;;;;4991833;28;20030;-71
2021/06/04 06:44:12;;;;;;;4.80;4.30;;;20.50;99.90;;;;;;4996235;28;20129;-72
2021/06/04 06:46:39;;;;;;;7.25;4.40;;;20.60;99.90;;;;;;5012162;28;20109;-73
2021/06/04 06:49:06;;;;;;;4.95;4.15;;;20.10;99.90;;;;;;5045229;23;20047;-75
2021/06/04 06:51:33;;;;;;;6.30;4.68;;;19.90;99.90;;;;;;4992202;28;20030;-75
2021/06/04 06:54:00;;;;;;;5.57;4.43;;;19.90;99.90;;;;;;4994704;28;20472;-74
2021/06/04 06:56:26;;;;;;;7.68;4.88;;;19.70;99.90;;;;;;4996358;28;20029;-74
2021/06/04 06:58:52;;;;;;;7.72;4.78;;;19.80;99.90;;;;;;4992031;28;20022;-74
2021/06/04 07:01:17;;;;;;;6.55;4.95;;;19.80;99.90;;;;;;4989378;28;20034;-75
2021/06/04 07:03:44;;;;;;;9.38;5.32;;;19.80;99.90;;;;;;4976304;28;20027;-74
2021/06/04 07:06:14;;;;;;;6.00;4.22;;;19.90;99.90;;;;;;4974767;28;20102;-75
2021/06/04 07:08:40;;;;;;;8.05;4.35;;;20.20;99.90;;;;;;4975329;28;20051;-75
2021/06/04 07:11:06;;;;;;;5.47;3.63;;;20.30;99.90;;;;;;4975504;28;20073;-75
2021/06/04 07:13:32;;;;;;;6.20;4.28;;;20.40;99.90;;;;;;4977501;28;20099;-75
2021/06/04 07:16:02;;;;;;;5.25;4.15;;;20.60;99.90;;;;;;4973853;28;20038;-75
2021/06/04 07:18:28;;;;;;;4.35;3.85;;;20.60;99.90;;;;;;4974849;28;20027;-74
2021/06/04 07:20:55;;;;;;;4.32;3.92;;;20.80;99.90;;;;;;4974954;28;20026;-74
2021/06/04 07:23:22;;;;;;;9.15;4.13;;;20.90;99.90;;;;;;4992551;28;20030;-74
2021/06/04 07:25:49;;;;;;;7.47;4.50;;;20.90;99.90;;;;;;4999296;28;20041;-75
2021/06/04 07:28:17;;;;;;;6.82;4.30;;;21.20;99.90;;;;;;4994534;28;20023;-74
2021/06/04 07:30:46;;;;;;;5.18;4.75;;;21.00;99.90;;;;;;4996041;28;20041;-75
2021/06/04 07:33:23;;;;;;;5.18;4.15;;;20.80;99.90;;;;;;4999893;28;20062;-74
2021/06/04 07:35:51;;;;;;;9.45;5.40;;;20.80;99.90;;;;;;5000003;28;20034;-74
2021/06/04 07:38:17;;;;;;;5.63;4.22;;;20.70;99.90;;;;;;4994584;28;20112;-74
2021/06/04 07:40:43;;;;;;;5.20;4.70;;;20.90;99.90;;;;;;4994437;28;20023;-75
2021/06/04 07:43:12;;;;;;;4.95;4.30;;;21.20;99.90;;;;;;4992865;28;20053;-75
2021/06/04 07:45:40;;;;;;;5.32;4.78;;;21.50;99.90;;;;;;4994678;28;20101;-75
2021/06/04 07:48:08;;;;;;;5.82;4.20;;;21.70;99.90;;;;;;5005255;28;20046;-74
2021/06/04 07:50:35;;;;;;;6.45;4.28;;;21.60;99.90;;;;;;4993207;28;20030;-74
2021/06/04 07:53:01;;;;;;;8.52;4.75;;;21.80;99.90;;;;;;4994925;28;20076;-73
2021/06/04 07:55:27;;;;;;;6.78;4.05;;;22.10;99.90;;;;;;4994502;28;20030;-74
2021/06/04 07:57:53;;;;;;;5.35;3.67;;;22.40;99.90;;;;;;4993913;28;20105;-74
2021/06/04 08:00:23;;;;;;;7.10;3.60;;;22.60;99.90;;;;;;4991873;28;20786;-75
2021/06/04 08:02:49;;;;;;;5.25;3.20;;;22.80;99.90;;;;;;4992785;28;20023;-76
2021/06/04 08:05:16;;;;;;;2.70;2.50;;;22.90;99.90;;;;;;4988947;28;20085;-76
2021/06/04 08:07:42;;;;;;;5.40;2.65;;;23.00;99.90;;;;;;4994917;28;20034;-75
2021/06/04 08:10:09;;;;;;;3.05;2.83;;;23.40;99.90;;;;;;4994378;28;20198;-76
2021/06/04 08:12:35;;;;;;;6.55;2.95;;;23.50;99.90;;;;;;4991494;28;20028;-75
2021/06/04 08:15:15;;;;;;;4.07;3.33;;;23.60;99.90;;;;;;4973228;28;20030;-76
2021/06/04 08:17:42;;;;;;;8.82;3.25;;;24.00;99.90;;;;;;4973901;28;20050;-76
2021/06/04 08:20:10;;;;;;;5.45;2.97;;;23.80;99.90;;;;;;4972802;28;20381;-76
2021/06/04 08:22:42;;;;;;;4.03;3.17;;;24.10;99.90;;;;;;4973730;28;20089;-75
2021/06/04 08:25:10;;;;;;;6.43;3.30;;;24.60;99.90;;;;;;4987814;28;20101;-76
2021/06/04 08:27:35;;;;;;;4.72;2.53;;;24.40;99.90;;;;;;4993935;28;20027;-76
2021/06/04 08:30:01;;;;;;;6.05;2.67;;;24.50;99.90;;;;;;4992512;28;20465;-76
2021/06/04 08:32:27;;;;;;;4.45;2.40;;;24.80;99.90;;;;;;4993960;28;20120;-75
2021/06/04 08:34:53;;;;;;;4.22;2.35;;;25.10;99.90;;;;;;4994359;28;20508;-76
2021/06/04 08:37:18;;;;;;;3.83;2.63;;;24.90;99.90;;;;;;4991723;28;20034;-75
2021/06/04 08:39:45;;;;;;;4.25;2.35;;;25.20;99.90;;;;;;4991306;28;20109;-76
2021/06/04 08:42:20;;;;;;;5.45;2.60;;;25.20;99.90;;;;;;4992857;28;20029;-75
2021/06/04 08:45:24;;;;;;;4.80;2.58;;;25.30;99.90;;;;;;4993931;28;20073;-75
2021/06/04 08:47:58;;;;;;;4.90;3.05;;;26.00;99.90;;;;;;4995731;28;20026;-74
2021/06/04 08:50:38;;;;;;;5.32;2.05;;;26.10;99.90;;;;;;4991093;28;20045;-74
2021/06/04 08:53:25;;;;;;;3.72;2.17;;;26.70;99.90;;;;;;4993424;28;20393;-73
2021/06/04 08:56:10;;;;;;;3.78;2.40;;;26.20;99.90;;;;;;4993701;28;20038;-74
2021/06/04 08:59:00;;;;;;;4.40;2.63;;;26.50;99.90;;;;;;4992314;28;20069;-73
2021/06/04 09:01:26;;;;;;;3.30;2.08;;;26.80;99.90;;;;;;4991908;28;20034;-74
2021/06/04 09:04:13;;;;;;;4.38;2.50;;;28.00;99.90;;;;;;4992728;28;20096;-74
2021/06/04 09:06:54;;;;;;;8.15;2.67;;;27.80;99.90;;;;;;4992559;28;20033;-75
2021/06/04 09:09:34;;;;;;;5.25;2.30;;;26.80;99.90;;;;;;4992178;28;20023;-74
2021/06/04 09:12:05;;;;;;;6.35;2.20;;;26.50;99.90;;;;;;4992450;28;20106;-74
2021/06/04 09:14:31;;;;;;;5.63;2.70;;;26.90;99.90;;;;;;4992009;28;20668;-74
2021/06/04 09:17:25;;;;;;;6.25;2.10;;;27.70;99.90;;;;;;4992837;28;20113;-74
2021/06/04 09:20:05;;;;;;;8.18;2.17;;;27.80;99.90;;;;;;4992237;28;20101;-74
2021/06/04 09:22:40;;;;;;;4.90;2.00;;;27.10;99.90;;;;;;4992668;28;20053;-74
2021/06/04 09:25:08;;;;;;;4.32;2.28;;;27.30;99.90;;;;;;4992456;28;20081;-73
2021/06/04 09:27:44;;;;;;;4.82;2.05;;;27.50;99.90;;;;;;4993022;28;20101;-75
2021/06/04 09:30:34;;;;;;;7.03;2.40;;;27.90;99.80;;;;;;4991706;28;20029;-75
2021/06/04 09:33:05;;;;;;;5.97;2.47;;;27.60;99.20;;;;;;4993479;28;20027;-74
2021/06/04 09:35:31;;;;;;;;;;;27.70;99.90;;;;;;4991162;28;20041;-73
2021/06/04 09:38:24;;;;;;;6.70;2.20;;;28.00;99.10;;;;;;4992218;28;19925;-74
2021/06/04 09:40:50;;;;;;;4.32;2.17;;;27.90;99.00;;;;;;4991385;28;20472;-75
2021/06/04 09:43:28;;;;;;;6.65;2.50;;;28.90;97.10;;;;;;4992010;28;20038;-75
2021/06/04 09:46:00;;;;;;;6.57;2.08;;;27.60;98.90;;;;;;4990787;28;20358;-74
2021/06/04 09:48:55;;;;;;;8.68;2.22;;;28.00;98.80;;;;;;4991972;28;20049;-74
2021/06/04 09:51:21;;;;;;;4.18;1.73;;;28.80;98.10;;;;;;4989755;28;20050;-74
2021/06/04 09:53:47;;;;;;;4.78;1.85;;;29.40;96.30;;;;;;4991831;28;20030;-73
2021/06/04 09:56:18;;;;;;;3.47;1.92;;;28.60;95.90;;;;;;4992144;28;20034;-74
2021/06/04 09:58:52;;;;;;;5.03;2.10;;;27.60;97.30;;;;;;4995295;28;20030;-72
2021/06/04 10:01:19;;;;;;;5.72;2.03;;;26.90;98.30;;;;;;4995042;28;20312;-73
2021/06/04 10:03:48;;;;;;;6.03;2.28;;;27.50;98.70;;;;;;4997434;28;20022;-74
2021/06/04 10:06:20;;;;;;;3.30;2.38;;;28.30;97.30;;;;;;4996814;28;20022;-75
2021/06/04 10:08:56;;;;;;;8.65;2.00;;;28.00;96.10;;;;;;4995436;28;20037;-73
2021/06/04 10:11:47;;;;;;;7.43;2.35;;;27.80;95.70;;;;;;4976038;28;20029;-75
2021/06/04 10:14:17;;;;;;;3.92;2.20;;;27.20;96.50;;;;;;4976753;28;20543;-73
2021/06/04 10:19:33;;;;;;;5.20;2.00;;;27.20;97.50;;;;;;4976289;28;20078;-74
2021/06/04 10:22:31;;;;;;;1.90;1.48;;;27.10;97.10;;;;;;4978503;28;20088;-74
2021/06/04 10:25:00;;;;;;;1.73;1.38;;;27.70;96.20;;;;;;4976406;28;20493;-73
2021/06/04 10:27:27;;;;;;;3.53;1.58;;;28.00;93.90;;;;;;4976296;28;20030;-73
2021/06/04 10:30:11;;;;;;;3.60;1.80;;;28.30;92.10;;;;;;4975331;28;20108;-73
2021/06/04 10:32:49;;;;;;;3.70;1.80;;;28.50;93.70;;;;;;4975441;28;20034;-74
2021/06/04 10:35:28;;;;;;;3.92;1.65;;;28.40;92.10;;;;;;4974485;28;20030;-74
2021/06/04 10:38:15;;;;;;;9.25;1.85;;;28.70;91.40;;;;;;4980990;28;20109;-72
2021/06/04 10:40:49;;;;;;;4.47;1.80;;;28.20;93.30;;;;;;4994088;28;20114;-74
2021/06/04 10:43:39;;;;;;;3.80;1.80;;;28.10;93.50;;;;;;4995392;28;20116;-74
2021/06/04 10:46:31;;;;;;;3.83;1.90;;;27.50;95.50;;;;;;4994801;28;20045;-74
2021/06/04 10:49:12;;;;;;;5.07;1.90;;;27.20;94.60;;;;;;5011878;28;20046;-73
2021/06/04 10:51:40;;;;;;;5.87;2.30;;;26.70;94.80;;;;;;5009155;28;20297;-74
2021/06/04 10:54:39;;;;;;;5.15;2.05;;;26.60;94.80;;;;;;4996153;28;20029;-73
2021/06/04 10:57:32;;;;;;;4.60;2.15;;;26.80;94.90;;;;;;4996043;28;20045;-74
2021/06/04 10:59:59;;;;;;;6.03;2.33;;;26.90;95.10;;;;;;4998921;28;20048;-74
2021/06/04 11:02:28;;;;;;;3.92;2.55;;;26.60;95.40;;;;;;4995953;28;20735;-75
2021/06/04 11:05:17;;;;;;;2.85;1.80;;;26.10;96.40;;;;;;4995590;28;20030;-74
2021/06/04 11:08:02;;;;;;;4.15;1.92;;;26.10;95.10;;;;;;5000843;28;20108;-76
2021/06/04 11:10:37;;;;;;;4.38;1.65;;;25.20;96.00;;;;;;4987856;28;20038;-75
2021/06/04 11:13:27;;;;;;;3.75;1.70;;;24.90;96.60;;;;;;4975134;28;20038;-73
2021/06/04 11:16:15;;;;;;;5.13;1.60;;;25.30;95.90;;;;;;4975110;28;20450;-73
2021/06/04 11:19:07;;;;;;;4.05;1.58;;;25.50;95.00;;;;;;4977304;28;20441;-74
2021/06/04 11:21:38;;;;;;;5.00;1.17;;;25.70;95.40;;;;;;5008927;28;20144;-74
2021/06/04 11:24:07;;;;;;;3.15;1.63;;;25.90;94.70;;;;;;4995015;28;20026;-74
2021/06/04 11:26:38;;;;;;;4.32;1.45;;;25.50;94.10;;;;;;4988496;28;20018;-74
2021/06/04 11:29:25;;;;;;;2.88;1.33;;;25.80;93.50;;;;;;4994448;28;20653;-74
2021/06/04 11:31:51;;;;;;;4.43;1.33;;;26.20;93.50;;;;;;4990793;28;20105;-74
2021/06/04 11:34:25;;;;;;;5.70;1.45;;;26.40;92.80;;;;;;4975280;28;20054;-76
2021/06/04 11:36:51;;;;;;;1.98;1.30;;;26.40;92.90;;;;;;4974256;28;20019;-74
2021/06/04 11:39:29;;;;;;;4.90;1.45;;;26.30;93.20;;;;;;4980742;28;20023;-73
2021/06/04 11:41:58;;;;;;;2.50;1.13;;;26.20;93.10;;;;;;4994473;28;20118;-74
2021/06/04 11:44:43;;;;;;;5.10;1.40;;;26.70;93.10;;;;;;4994618;28;20054;-74
2021/06/04 11:47:12;;;;;;;3.40;1.50;;;26.60;93.00;;;;;;4993609;28;20036;-74
2021/06/04 11:49:53;;;;;;;3.67;1.42;;;26.90;93.90;;;;;;4993316;28;20030;-74
2021/06/04 11:52:46;;;;;;;6.85;2.03;;;27.10;92.90;;;;;;4994865;28;20029;-73
2021/06/04 11:55:28;;;;;;;1.88;1.45;;;27.40;92.00;;;;;;4994141;28;20180;-73
2021/06/04 11:58:00;;;;;;;3.78;2.20;;;27.40;92.30;;;;;;4982581;28;20027;-74
2021/06/04 12:00:26;;;;;;;;;;;27.50;92.50;;;;;;4974019;28;20473;-74
2021/06/04 12:03:17;;;;;;;7.05;2.28;;;27.80;92.40;;;;;;4974036;28;19913;-73
2021/06/04 12:05:58;;;;;;;4.77;1.73;;;27.60;91.30;;;;;;4974057;28;20030;-73
2021/06/04 12:08:29;;;;;;;2.67;1.75;;;27.00;92.90;;;;;;4975691;28;20113;-74
2021/06/04 12:11:01;;;;;;;4.40;2.30;;;28.20;92.90;;;;;;4995180;28;20041;-74
2021/06/04 12:13:46;;;;;;;2.88;1.90;;;28.50;91.60;;;;;;4995489;28;20022;-73
2021/06/04 12:16:28;;;;;;;5.68;2.20;;;29.60;91.60;;;;;;4989374;28;20123;-74
2021/06/04 12:19:26;;;;;;;3.97;1.90;;;30.60;89.70;;;;;;4974874;28;20462;-74
2021/06/04 12:21:52;;;;;;;3.10;1.70;;;31.20;90.60;;;;;;4990862;28;20510;-73
2021/06/04 12:24:20;;;;;;;4.28;1.92;;;31.20;88.40;;;;;;4993958;28;20038;-74
2021/06/04 12:27:00;;;;;;;6.45;2.30;;;31.10;85.70;;;;;;4993585;28;20130;-73
2021/06/04 12:29:31;;;;;;;7.65;2.00;;;30.50;88.10;;;;;;4994034;28;20032;-73
2021/06/04 12:32:36;;;;;;;4.25;2.08;;;30.60;89.40;;;;;;4993918;28;20026;-75
2021/06/04 12:35:04;;;;;;;5.50;2.28;;;29.50;90.70;;;;;;4986096;28;20089;-75
2021/06/04 12:37:39;;;;;;;3.42;2.20;;;29.50;91.40;;;;;;4993840;28;20026;-75
2021/06/04 12:40:08;;;;;;;5.78;2.33;;;29.00;92.10;;;;;;4992762;28;20063;-75
2021/06/04 12:42:44;;;;;;;4.40;2.30;;;29.00;92.30;;;;;;4993333;28;20022;-75
2021/06/04 12:45:15;;;;;;;4.20;2.63;;;27.80;93.10;;;;;;4992412;28;20014;-75
2021/06/04 12:47:56;;;;;;;2.55;1.92;;;27.90;94.20;;;;;;4993540;28;20022;-75
2021/06/04 12:50:33;;;;;;;4.28;2.40;;;28.60;94.20;;;;;;4992782;28;20042;-74
2021/06/04 12:53:20;;;;;;;2.50;2.00;;;29.00;92.40;;;;;;4993185;28;20037;-75
2021/06/04 12:56:09;;;;;;;4.72;1.90;;;29.20;92.70;;;;;;4993460;28;20520;-74
2021/06/04 12:58:46;;;;;;;3.20;2.15;;;28.90;90.70;;;;;;4992796;28;20397;-74
2021/06/04 13:01:25;;;;;;;3.50;1.98;;;28.70;91.30;;;;;;4973099;28;20022;-74
2021/06/04 13:03:55;;;;;;;4.93;1.35;;;28.70;89.80;;;;;;4973437;28;20118;-74
2021/06/04 13:06:34;;;;;;;1.73;1.05;;;29.10;81.30;;;;;;4973770;28;20498;-74
2021/06/04 13:09:02;;;;;;;2.33;1.45;;;29.20;84.90;;;;;;4973236;28;20784;-74
2021/06/04 13:11:45;;;;;;;3.55;2.15;;;29.80;79.10;;;;;;4971834;28;20034;-73